Stations météo

réclame
Mon MeteoGroup
Trollenhagen, Allemagne (10281): Température de l'air & dewpoint: 16.11.2019 04:00:00 - 22.11.2019 04:00:00 (CET)Trollenhagen, Allemagne (10281): Température de l'air 5cm & Température de l'air -5cm: 16.11.2019 04:00:00 - 22.11.2019 04:00:00 (CET)Trollenhagen, Allemagne (10281): Température de l'air -20cm & Température de l'air -100cm: 16.11.2019 04:00:00 - 22.11.2019 04:00:00 (CET)Trollenhagen, Allemagne (10281): Vitesse du vent & gusts: 16.11.2019 04:00:00 - 22.11.2019 04:00:00 (CET)Trollenhagen, Allemagne (10281): Direction du vent: 16.11.2019 04:00:00 - 22.11.2019 04:00:00 (CET)Trollenhagen, Allemagne (10281): reduced air pressure: 16.11.2019 04:00:00 - 22.11.2019 04:00:00 (CET)Trollenhagen, Allemagne (10281): Ensoleillement: 16.11.2019 04:00:00 - 22.11.2019 04:00:00 (CET)Trollenhagen, Allemagne (10281): Quantités de précipitations: 16.11.2019 04:00:00 - 22.11.2019 04:00:00 (CET)
Date & Time tt [°C] td [°C] tt 5cm [°C] tt -5cm [°C] tt -20cm [°C] tt -100cm [°C] ff [km/h] ff [knt] fx [km/h] fx [knt] dd ppp [hPa] sd [min] rr [mm]
22.11.2019 04:00:00 8,7 8,7 8,5 8,1 7,6 8,7 13 7 22 12 ESE 1009,2 0 0,0
22.11.2019 03:00:00 8,8 8,8 8,5 8,0 7,6 8,7 13 7 19 11 ESE 1009,3 0 0,7
22.11.2019 02:00:00 8,8 8,8 8,5 8,0 7,6 8,7 11 6 16 9 ESE 1009,3 0 1,3
22.11.2019 01:00:00 8,7 8,6 8,2 7,9 7,6 8,7 11 6 19 11 ESE 1009,2 0 1,0
22.11.2019 00:00:00 8,5 8,4 8,0 7,8 7,5 8,7 13 7 19 10 ESE 1009,5 0 1,1
21.11.2019 23:00:00 8,3 8,3 8,0 7,8 7,5 8,7 13 7 25 14 E 1009,8 0 1,6
21.11.2019 22:00:00 8,4 8,2 8,0 7,9 7,5 8,7 16 9 26 14 E 1009,9 0 0,7
21.11.2019 21:00:00 8,5 8,1 8,0 8,0 7,5 8,7 17 9 30 16 E 1010,1 0 0,7
21.11.2019 20:00:00 8,8 8,6 8,4 8,1 7,4 8,7 16 9 29 16 E 1010,2 0 0,3
21.11.2019 19:00:00 9,2 9,0 8,7 8,2 7,3 8,7 19 10 25 14 E 1010,4 0 0,1
21.11.2019 18:00:00 9,0 8,9 8,7 8,1 7,3 8,7 16 9 22 12 E 1010,8 0 0,0
21.11.2019 17:00:00 9,1 8,9 8,6 8,0 7,2 8,7 16 9 21 12 ENE 1011,0 0 0,0
21.11.2019 16:00:00 9,1 8,9 8,7 8,1 7,1 8,7 17 9 23 12 E 1011,2 0 0,0
21.11.2019 15:00:00 9,2 9,1 8,9 8,1 7,0 8,7 15 8 19 10 ENE 1011,4 0 0,0
21.11.2019 14:00:00 8,8 8,8 8,8 8,0 6,8 8,7 11 6 15 8 NE 1011,8 0 0,0
21.11.2019 13:00:00 8,6 8,6 8,6 7,9 6,6 8,7 11 6 15 8 NE 1012,5 0 0,0
21.11.2019 12:00:00 8,2 8,2 8,3 7,6 6,5 8,7 10 6 14 7 NE 1013,4 0 0,0
21.11.2019 11:00:00 7,6 7,6 7,7 7,0 6,4 8,7 11 6 14 8 ENE 1014,1 0 0,0
21.11.2019 10:00:00 7,0 7,0 7,0 6,5 6,3 8,7 11 6 14 8 ENE 1014,2 0 0,0
21.11.2019 09:00:00 6,5 6,5 6,5 6,2 6,3 8,7 12 7 15 8 ENE 1014,4 0 0,0
21.11.2019 08:00:00 6,1 6,1 6,1 6,0 6,2 8,7 9 5 13 7 NE 1014,5 0 0,0
21.11.2019 07:00:00 6,0 6,0 5,9 5,9 6,2 8,7 9 5 12 6 NE 1014,7 0 0,0
21.11.2019 06:00:00 5,9 5,9 5,8 5,8 6,2 8,7 8 4 10 6 NE 1015,0 0 0,0
21.11.2019 05:00:00 6,0 6,0 5,8 5,8 6,2 8,7 8 5 18 10 E 1015,4 0 0,0
21.11.2019 04:00:00 6,0 5,6 5,7 5,7 6,2 8,7 14 8 27 14 ESE 1015,6 0 0,0
21.11.2019 03:00:00 5,9 5,5 5,7 5,7 6,2 8,7 18 10 24 13 ESE 1016,3 0 0,0
21.11.2019 02:00:00 5,8 5,7 5,7 5,7 6,1 8,7 10 5 15 8 E 1016,7 0 0,0
21.11.2019 01:00:00 5,6 5,6 5,5 5,7 6,1 8,7 13 7 16 9 ENE 1016,9 0 0,0
21.11.2019 00:00:00 5,5 5,5 5,5 5,6 6,1 8,7 7 4 10 6 ENE 1017,4 0 0,0
20.11.2019 23:00:00 5,5 5,5 5,5 5,7 6,1 8,7 6 4 8 4 ENE 1017,6 0 0,0
20.11.2019 22:00:00 5,4 5,4 5,4 5,6 6,1 8,7 3 2 6 3 E 1017,7 0 0,0
20.11.2019 21:00:00 5,3 5,3 5,2 5,6 6,1 8,7 0 0 4 2 N 1017,8 0 0,0
20.11.2019 20:00:00 5,2 5,2 5,2 5,6 6,1 8,7 0 0 4 2 N 1017,7 0 0,0
20.11.2019 19:00:00 5,2 5,1 5,2 5,6 6,1 8,7 1 1 2 1 SW 1017,8 0 0,1
20.11.2019 18:00:00 5,1 5,1 5,0 5,6 6,1 8,7 2 1 6 3 WNW 1017,9 0 0,0
20.11.2019 17:00:00 5,2 5,1 5,2 5,7 6,1 8,7 5 3 6 4 WNW 1017,7 0 0,0
20.11.2019 16:00:00 5,4 5,3 5,3 5,8 6,0 8,7 5 3 8 5 WSW 1017,7 0 0,0
20.11.2019 15:00:00 5,4 5,1 5,4 5,8 6,0 8,7 6 4 11 6 W 1017,9 0 0,0
20.11.2019 14:00:00 5,4 5,2 5,5 5,9 5,9 8,7 9 5 12 7 W 1017,8 0 0,0
20.11.2019 13:00:00 5,4 5,2 5,5 5,7 5,9 8,7 10 5 12 6 W 1018,3 0 0,0
20.11.2019 12:00:00 5,4 5,1 5,7 5,7 5,8 8,7 8 4 14 7 WNW 1018,5 0 0,0
20.11.2019 11:00:00 5,0 4,9 5,2 5,4 5,8 8,7 10 5 14 8 WNW 1019,0 0 0,0
20.11.2019 10:00:00 4,8 4,8 4,8 5,2 5,7 8,7 9 5 10 6 WNW 1019,5 0 0,0
20.11.2019 09:00:00 4,6 4,5 4,7 4,9 5,7 8,7 5 3 9 5 W 1019,5 0 0,0
20.11.2019 08:00:00 4,5 4,3 4,2 4,8 5,7 8,7 3 2 10 5 NW 1019,7 0 0,1
20.11.2019 07:00:00 4,4 4,2 4,0 4,8 5,8 8,7 5 3 9 5 NE 1019,8 0 0,1
20.11.2019 06:00:00 4,5 4,2 4,0 4,8 5,8 8,7 2 1 7 4 SW 1019,8 0 0,2
20.11.2019 05:00:00 4,4 4,3 4,2 4,8 5,8 8,7 6 4 10 5 E 1019,8 0 0,3
20.11.2019 04:00:00 4,6 4,1 4,0 4,8 5,8 8,7 1 1 3 2 SE 1019,9 0 0,1
20.11.2019 03:00:00 4,7 4,0 4,0 4,8 5,9 8,7 2 1 3 2 W 1019,9 0 0,4
20.11.2019 02:00:00 5,1 4,0 4,2 4,8 5,9 8,7 3 1 5 3 SSW 1020,0 0 0,1
20.11.2019 01:00:00 4,9 3,3 4,2 4,8 6,0 8,7 4 2 8 4 SE 1020,0 0 0,0
20.11.2019 00:00:00 5,4 3,2 4,7 4,8 6,0 8,7 7 4 9 5 SE 1020,0 0 0,0
19.11.2019 23:00:00 5,7 3,1 4,8 5,0 6,1 8,7 6 4 9 5 SE 1019,9 0 0,0
19.11.2019 22:00:00 6,2 3,3 5,4 5,2 6,1 8,7 8 4 12 7 SSE 1019,8 0 0,0
19.11.2019 21:00:00 6,6 3,4 5,9 5,4 6,1 8,7 8 4 13 7 S 1019,5 0 0,0
19.11.2019 20:00:00 6,9 3,2 6,2 5,4 6,2 8,7 11 6 17 9 SSW 1019,0 0 0,0
19.11.2019 19:00:00 7,0 3,1 6,2 5,5 6,2 8,8 9 5 22 12 SSW 1018,6 0 0,0
19.11.2019 18:00:00 7,2 3,2 6,4 5,6 6,2 8,8 12 6 28 15 SSW 1018,2 0 0,0
19.11.2019 17:00:00 7,1 3,5 6,4 5,7 6,3 8,8 15 8 33 18 SW 1017,1 0 0,0
19.11.2019 16:00:00 7,4 3,5 6,7 6,0 6,2 8,8 19 10 32 18 SSW 1016,6 0 0,0
19.11.2019 15:00:00 7,5 3,7 7,0 6,4 6,1 8,8 16 9 38 21 SSW 1015,9 5 0,0
19.11.2019 14:00:00 7,5 3,8 7,4 6,6 6,0 8,8 23 13 49 26 SW 1014,9 0 0,0
19.11.2019 13:00:00 7,3 3,8 7,1 6,5 5,9 8,8 25 13 43 23 SSW 1014,6 0 0,0
19.11.2019 12:00:00 7,3 4,1 7,1 6,5 5,7 8,8 24 13 48 26 SW 1013,7 1 0,0
19.11.2019 11:00:00 7,1 4,2 7,3 6,1 5,5 8,8 31 17 50 27 SW 1012,7 0 0,0
19.11.2019 10:00:00 6,8 4,4 6,2 5,4 5,4 8,8 29 15 53 28 SSW 1011,9 0 0,0
19.11.2019 09:00:00 5,5 4,3 4,9 4,6 5,4 8,7 24 13 47 26 SSW 1010,5 0 0,1
19.11.2019 08:00:00 5,0 3,2 4,2 4,1 5,4 8,7 24 13 44 24 S 1009,7 0 0,0
19.11.2019 07:00:00 5,3 2,1 4,2 3,9 5,4 8,7 23 12 49 27 S 1008,7 0 0,0
19.11.2019 06:00:00 5,3 1,6 4,7 3,8 5,5 8,7 21 11 44 24 S 1008,3 0 0,0
19.11.2019 05:00:00 4,8 1,5 4,4 3,4 5,6 8,7 19 11 38 21 S 1008,5 0 0,0
19.11.2019 04:00:00 4,5 0,9 3,3 3,2 5,7 8,7 18 10 40 21 S 1008,4 0 0,0
19.11.2019 03:00:00 4,2 0,9 3,0 2,8 6,0 8,7 17 9 37 20 SSE 1009,0 0 0,0
19.11.2019 02:00:00 4,4 1,1 3,1 3,3 6,2 8,7 14 7 29 16 SSE 1009,2 0 0,0
19.11.2019 01:00:00 4,6 1,4 2,7 3,5 6,5 8,7 14 7 28 15 S 1009,1 0 0,0
19.11.2019 00:00:00 5,0 2,2 3,5 4,2 6,8 8,7 14 8 27 15 SSE 1009,2 0 0,0
18.11.2019 23:00:00 6,1 3,1 4,7 5,3 6,9 8,7 15 8 32 17 S 1008,7 0 0,0
18.11.2019 22:00:00 7,2 4,7 6,8 6,5 7,0 8,7 14 8 29 16 S 1008,5 0 0,0
18.11.2019 21:00:00 7,5 5,6 7,0 6,7 7,0 8,7 14 8 29 16 SSW 1008,3 0 0,0
18.11.2019 20:00:00 7,3 6,0 6,7 6,9 7,1 8,8 16 9 33 18 SSW 1008,2 0 0,0
18.11.2019 19:00:00 7,4 6,2 7,0 7,1 7,1 8,8 16 9 29 16 SW 1007,4 0 0,0
18.11.2019 18:00:00 7,6 6,3 7,3 7,4 7,1 8,8 19 11 37 20 SSW 1006,8 0 0,0
18.11.2019 17:00:00 8,8 7,7 8,5 8,1 7,0 8,8 17 9 29 16 S 1005,9 0 0,0
18.11.2019 16:00:00 10,4 8,2 9,8 8,3 6,9 8,8 14 7 26 14 SSE 1005,0 0 0,0
18.11.2019 15:00:00 10,3 8,1 9,9 8,8 6,7 8,8 17 9 29 15 SE 1004,8 0 0,0
18.11.2019 14:00:00 10,4 8,1 10,2 9,0 6,4 8,8 15 8 28 15 SE 1004,6 0 0,0
18.11.2019 13:00:00 10,2 7,9 10,2 8,8 6,1 8,8 14 7 26 14 SE 1004,8 0 0,0
18.11.2019 12:00:00 9,4 7,5 9,4 8,5 5,8 8,8 16 9 29 16 SE 1005,1 2 0,0
18.11.2019 11:00:00 9,0 7,1 8,7 7,2 5,5 8,8 20 11 28 15 ESE 1005,6 35 0,0
18.11.2019 10:00:00 8,8 7,3 8,5 6,5 5,3 8,8 16 9 23 12 ESE 1005,6 48 0,0
18.11.2019 09:00:00 7,8 6,7 6,7 5,1 5,3 8,8 11 6 21 11 ESE 1005,5 0 0,0
18.11.2019 08:00:00 7,7 6,7 6,5 4,9 5,2 8,8 16 8 21 11 ESE 1005,2 0 0,0
18.11.2019 07:00:00 7,4 6,4 5,7 4,5 5,2 8,8 15 8 25 14 ESE 1005,1 0 0,0
18.11.2019 06:00:00 7,8 6,6 6,0 4,4 5,2 8,8 16 9 23 12 ESE 1005,2 0 0,0
18.11.2019 05:00:00 6,8 6,2 5,4 4,4 5,2 8,9 16 9 22 12 E 1005,1 0 0,0
18.11.2019 04:00:00 6,5 6,1 5,2 4,2 5,2 8,9 14 8 24 13 E 1005,1 0 0,0
18.11.2019 03:00:00 6,4 6,1 5,5 4,1 5,2 8,9 17 9 22 12 E 1005,9 0 0,0
18.11.2019 02:00:00 4,8 4,8 3,7 4,1 5,2 8,9 12 6 21 12 E 1006,3 0 0,0
18.11.2019 01:00:00 5,7 5,7 5,3 4,6 5,2 8,9 17 9 22 12 E 1006,7 0 0,0
18.11.2019 00:00:00 5,3 5,3 4,4 4,2 5,2 8,9 13 7 21 11 ENE 1007,6 0 0,0
17.11.2019 23:00:00 5,3 5,1 4,3 4,1 5,3 8,9 17 9 24 13 ENE 1008,1 0 0,0
17.11.2019 22:00:00 5,7 5,2 4,6 4,5 5,3 8,9 19 10 28 15 ENE 1008,8 0 0,0
17.11.2019 21:00:00 6,3 5,4 5,3 5,0 5,2 8,9 19 10 25 14 ENE 1009,7 0 0,0
17.11.2019 20:00:00 6,5 5,5 5,7 4,8 5,1 8,9 20 11 26 14 NE 1010,4 0 0,0
17.11.2019 19:00:00 6,4 5,5 5,3 4,8 5,1 8,9 17 9 32 18 NE 1010,9 0 0,0
17.11.2019 18:00:00 6,8 5,6 5,9 5,0 4,9 8,9 26 14 40 22 ENE 1011,4 0 0,0
17.11.2019 17:00:00 6,4 5,2 5,7 4,9 4,8 9,0 26 14 36 20 NE 1011,6 0 0,0
17.11.2019 16:00:00 5,9 4,8 5,2 4,7 4,7 9,0 21 11 30 16 NE 1012,6 0 0,0
17.11.2019 15:00:00 5,2 4,4 4,7 4,4 4,5 9,0 22 12 29 16 NNE 1013,5 0 0,1
17.11.2019 14:00:00 4,3 4,1 4,2 4,3 4,4 9,0 17 9 22 12 NE 1014,4 0 0,7
17.11.2019 13:00:00 3,6 3,2 3,7 4,1 4,2 9,0 16 9 21 11 NE 1015,3 0 0,2
17.11.2019 12:00:00 3,7 2,9 3,7 3,7 4,0 9,0 11 6 14 8 ENE 1016,2 0 0,0
17.11.2019 11:00:00 3,3 2,7 3,4 2,9 3,8 9,0 6 4 11 6 ENE 1016,5 0 0,0
17.11.2019 10:00:00 1,4 1,3 1,2 1,2 3,9 9,0 8 4 9 5 ENE 1017,0 0 0,0
17.11.2019 09:00:00 0,6 0,5 0,0 0,7 4,0 9,0 6 3 11 6 ESE 1017,2 0 0,0
17.11.2019 08:00:00 0,0 0,0 -2,0 0,7 4,2 9,0 8 5 11 6 ESE 1017,4 0 0,0
17.11.2019 07:00:00 -0,1 -0,2 -2,6 0,7 4,4 9,0 5 3 11 6 ENE 1016,9 0 0,0
17.11.2019 06:00:00 1,3 0,7 -0,8 0,7 4,6 9,0 7 4 22 12 SSE 1016,1 0 0,0
17.11.2019 05:00:00 1,6 0,8 0,4 1,0 4,8 9,0 17 9 25 13 SSE 1016,1 0 0,0
17.11.2019 04:00:00 1,8 0,9 0,5 1,3 5,1 9,0 13 7 22 12 SSE 1015,7 0 0,0
17.11.2019 03:00:00 2,6 1,0 0,1 1,6 5,3 9,0 9 5 22 12 S 1015,2 0 0,0
17.11.2019 02:00:00 3,3 1,1 1,4 2,1 5,5 8,9 10 5 22 12 S 1014,8 0 0,0
17.11.2019 01:00:00 4,0 2,0 2,2 2,5 5,7 8,9 15 8 26 14 SSW 1014,1 0 0,0
17.11.2019 00:00:00 4,3 2,3 2,3 2,7 6,0 8,9 13 7 30 16 SSW 1014,0 0 0,0
16.11.2019 23:00:00 4,6 2,2 2,9 3,1 6,2 8,9 16 9 29 16 SSW 1013,7 0 0,0
16.11.2019 22:00:00 4,9 2,8 3,4 3,6 6,4 8,9 18 10 28 15 SSW 1012,9 0 0,0
16.11.2019 21:00:00 5,2 3,3 3,6 4,1 6,6 8,9 17 9 42 23 SSW 1011,8 0 0,0
16.11.2019 20:00:00 5,7 3,0 5,1 5,1 6,8 8,9 26 14 46 25 SSW 1011,6 0 0,0
16.11.2019 19:00:00 5,8 3,1 5,3 5,3 6,9 8,9 24 13 46 25 SW 1009,9 0 0,0
16.11.2019 18:00:00 5,5 3,2 5,1 5,5 7,1 8,9 22 12 48 26 SW 1009,0 0 0,0
16.11.2019 17:00:00 5,6 3,3 5,2 5,9 7,2 8,9 27 15 47 26 SSW 1008,2 0 0,0
16.11.2019 16:00:00 5,9 4,0 5,3 6,4 7,3 8,9 29 16 53 28 SW 1007,2 0 0,0
16.11.2019 15:00:00 6,6 5,7 6,0 7,1 7,4 8,9 28 15 45 24 SW 1005,8 0 0,0
16.11.2019 14:00:00 7,3 6,6 6,9 7,7 7,3 8,9 27 15 45 24 SSW 1004,4 0 0,0
16.11.2019 13:00:00 8,8 7,8 8,4 8,3 7,2 8,9 17 9 32 17 SSW 1003,3 0 0,0
16.11.2019 12:00:00 9,1 8,2 8,9 8,2 7,1 8,9 16 8 30 16 S 1002,8 0 0,0
16.11.2019 11:00:00 9,0 8,4 8,8 7,9 7,0 8,9 10 5 23 13 S 1002,9 0 0,0
16.11.2019 10:00:00 8,3 7,8 8,0 7,6 6,9 8,9 14 7 21 11 SE 1002,8 0 0,5
16.11.2019 09:00:00 8,1 7,5 7,5 7,0 6,8 8,9 12 6 21 11 ESE 1003,1 0 0,4
16.11.2019 08:00:00 8,0 7,4 7,6 6,8 6,9 8,9 13 7 20 11 ESE 1003,1 0 0,0
16.11.2019 07:00:00 7,9 7,5 7,0 6,7 6,9 8,9 12 7 18 10 E 1002,9 0 0,0
16.11.2019 06:00:00 7,9 7,5 7,2 6,8 6,8 8,9 12 7 18 10 E 1003,4 0 0,0
16.11.2019 05:00:00 8,5 7,8 8,0 7,2 6,8 8,9 12 7 18 10 E 1004,1 0 0,0
16.11.2019 04:00:00 8,8 7,9 8,2 7,3 6,7 8,9 11 6 22 12 ESE 1004,6 0 0,0

tt = Température de l'air
td = dewpoint
tt 5cm = Température de l'air 5cm
tt -5cm = Température de l'air -5cm
tt -20cm = Température de l'air -20cm
tt -100cm = Température de l'air -100cm
ff = Vitesse du vent
fx = gusts
dd = Direction du vent
ppp = reduced air pressure
sd = Ensoleillement
rr = Quantités de précipitations

stations d'obs. à proximité